Hi Hat, KY (41636)

5:41 PM EDT on July 05, 2015 (GMT -0400)
Quail Ridge | | Change Station
CLOSE
Current Station
Personal Weather Station
Location: Pikeville, KY
Elevation: 778 ft
Nearby Weather Stations
Active Advisory: Flash Flood Watch

Elev 778 ft 37.50 °N, 82.54 °W | Updated 1 second ago

Overcast
Overcast
79.6 °F
Feels Like 83 °F
N
0.0
Wind Variable Wind from WSW
Gusts 0.0 mph

Today
High -- | Low -- °F
--% Chance of Precip.
Yesterday
High -- | Low -- °F
Precip. -- in
6:15 AM 8:55 PM
Waning Gibbous, 82% visible
Pressure 30.06 in
Visibility 10.0 miles
Clouds Scattered Clouds 3200 ft
Mostly Cloudy 4600 ft
Overcast 8500 ft
Heat Index 83 °F
Dew Point 72 °F
Humidity 77%
Rainfall 0.23 in
Snow Depth Not available.
UV 2 out of 12
Pollen .50 out of 12
Air Quality Not available.
Flu Activity Not available.
METAR KSJS 052115Z AUTO 00000KT 10SM -RA SCT032 BKN046 OVC085 22/21 A3006 RMK AO2 T02190210

More Conditions Fewer Conditions

Pressure 30.06 in
Visibility 10.0 miles
Clouds Scattered Clouds 3200 ft
Mostly Cloudy 4600 ft
Overcast 8500 ft
Heat Index 83 °F
Dew Point 72 °F
Humidity 77%
Rainfall 0.23 in
Snow Depth Not available.
UV 2 out of 12
Pollen .50 out of 12
Air Quality Not available.
Flu Activity Not available.
METAR KSJS 052115Z AUTO 00000KT 10SM -RA SCT032 BKN046 OVC085 22/21 A3006 RMK AO2 T02190210

More Conditions Fewer Conditions

10-Day Weather Forecast

×

Almanac

Astronomy

Jul. 05, 2015 Rise Set
Actual Time
Civil Twilight
Nautical Twilight
Astronomical Twilight
Moon
Length of Visible Light
Length of Day
Tomorrow will be .
, % of the Moon is Illuminated

Today's Extremes

State Highs State Lows

Community

WunderPhotos

Upload Photos

1,835,400 photos uploaded!

WunderBlogs® & News

Nearby

Air Quality

  Air Quality AQ Index Pollutant
Not available.

Snow Depth

Station Depth Elevation

Earthquake Activity

City Distance Mag. Time & Date
Minimum magnitude displayed is 2.5.

Coastal Water Temperatures

Place Temperature

Stations

Nearby Weather Stations

Station Location Temp. Windchill Dew Point Humidity Wind Precip. Elev Updated Type
                   
Flash Flood Watch
Statement as of 12:46 PM EDT on July 05, 2015

... Flash Flood Watch remains in effect through late tonight...

The Flash Flood Watch continues for

* portions of northeast Kentucky and southeast Kentucky...
including the following areas... in northeast Kentucky...
Johnson and Martin. In southeast Kentucky... Bell... Breathitt...
   Floyd... Harlan... Knott... Leslie... Letcher... Magoffin... Perry
and Pike.

* Through late tonight

* slow moving showers and thunderstorms are expected to bring
locally heavy rainfall on top of already wet ground.

Precautionary/preparedness actions...

A Flash Flood Watch means that conditions may develop that lead
to flash flooding. Flash flooding is a very dangerous situation.

You should monitor later forecasts and be prepared to take action
should flash flood warnings be issued.



Jp